sensor_id;sensor_type;location;lat;lon;timestamp;P1;durP1;ratioP1;P2;durP2;ratioP2
10945;SDS011;5525;42.648;23.368;2022-09-09T00:01:41;12.38;;;11.15;;
10945;SDS011;5525;42.648;23.368;2022-09-09T00:04:15;13.18;;;11.80;;
10945;SDS011;5525;42.648;23.368;2022-09-09T00:06:55;13.43;;;11.45;;
10945;SDS011;5525;42.648;23.368;2022-09-09T00:09:28;14.50;;;11.20;;
10945;SDS011;5525;42.648;23.368;2022-09-09T00:11:58;12.15;;;10.90;;
10945;SDS011;5525;42.648;23.368;2022-09-09T00:14:32;13.18;;;11.60;;
10945;SDS011;5525;42.648;23.368;2022-09-09T00:17:07;11.95;;;10.38;;
10945;SDS011;5525;42.648;23.368;2022-09-09T00:19:39;13.35;;;11.45;;
10945;SDS011;5525;42.648;23.368;2022-09-09T00:22:14;12.07;;;10.88;;
10945;SDS011;5525;42.648;23.368;2022-09-09T00:24:43;11.65;;;10.48;;
10945;SDS011;5525;42.648;23.368;2022-09-09T00:27:16;12.05;;;10.77;;
10945;SDS011;5525;42.648;23.368;2022-09-09T00:29:51;13.77;;;11.05;;
10945;SDS011;5525;42.648;23.368;2022-09-09T00:32:22;11.52;;;10.27;;
10945;SDS011;5525;42.648;23.368;2022-09-09T00:34:56;13.05;;;11.82;;
10945;SDS011;5525;42.648;23.368;2022-09-09T00:37:28;14.65;;;11.68;;
10945;SDS011;5525;42.648;23.368;2022-09-09T00:39:57;11.98;;;10.75;;
10945;SDS011;5525;42.648;23.368;2022-09-09T00:42:31;12.52;;;11.05;;
10945;SDS011;5525;42.648;23.368;2022-09-09T00:45:11;12.57;;;11.38;;
10945;SDS011;5525;42.648;23.368;2022-09-09T00:47:49;12.77;;;11.30;;
10945;SDS011;5525;42.648;23.368;2022-09-09T00:50:26;12.15;;;10.95;;
10945;SDS011;5525;42.648;23.368;2022-09-09T00:53:11;11.52;;;10.32;;
10945;SDS011;5525;42.648;23.368;2022-09-09T00:55:51;11.43;;;10.27;;
10945;SDS011;5525;42.648;23.368;2022-09-09T00:58:26;13.05;;;10.57;;
10945;SDS011;5525;42.648;23.368;2022-09-09T01:00:55;11.13;;;9.95;;
10945;SDS011;5525;42.648;23.368;2022-09-09T01:03:32;10.43;;;9.52;;
10945;SDS011;5525;42.648;23.368;2022-09-09T01:06:11;10.73;;;9.65;;
10945;SDS011;5525;42.648;23.368;2022-09-09T01:08:50;10.50;;;9.60;;
10945;SDS011;5525;42.648;23.368;2022-09-09T01:11:24;9.90;;;8.90;;
10945;SDS011;5525;42.648;23.368;2022-09-09T01:14:02;10.77;;;9.48;;
10945;SDS011;5525;42.648;23.368;2022-09-09T01:16:41;10.20;;;9.30;;
10945;SDS011;5525;42.648;23.368;2022-09-09T01:19:12;10.55;;;9.43;;
10945;SDS011;5525;42.648;23.368;2022-09-09T01:21:47;11.52;;;9.40;;
10945;SDS011;5525;42.648;23.368;2022-09-09T01:24:20;11.30;;;9.45;;
10945;SDS011;5525;42.648;23.368;2022-09-09T01:26:56;14.98;;;10.65;;
10945;SDS011;5525;42.648;23.368;2022-09-09T01:29:25;13.23;;;10.23;;
10945;SDS011;5525;42.648;23.368;2022-09-09T01:31:53;11.43;;;10.32;;
10945;SDS011;5525;42.648;23.368;2022-09-09T01:34:22;11.35;;;10.32;;
10945;SDS011;5525;42.648;23.368;2022-09-09T01:36:53;13.50;;;10.30;;
10945;SDS011;5525;42.648;23.368;2022-09-09T01:39:24;12.98;;;10.77;;
10945;SDS011;5525;42.648;23.368;2022-09-09T01:41:52;11.43;;;10.20;;
10945;SDS011;5525;42.648;23.368;2022-09-09T01:44:23;11.73;;;10.63;;
10945;SDS011;5525;42.648;23.368;2022-09-09T01:46:52;12.02;;;10.82;;
10945;SDS011;5525;42.648;23.368;2022-09-09T01:49:19;13.25;;;10.73;;
10945;SDS011;5525;42.648;23.368;2022-09-09T01:51:46;13.63;;;11.45;;
10945;SDS011;5525;42.648;23.368;2022-09-09T01:54:17;12.80;;;11.10;;
10945;SDS011;5525;42.648;23.368;2022-09-09T01:56:47;13.02;;;11.70;;
10945;SDS011;5525;42.648;23.368;2022-09-09T01:59:28;13.25;;;11.82;;
10945;SDS011;5525;42.648;23.368;2022-09-09T02:02:16;14.02;;;10.75;;
10945;SDS011;5525;42.648;23.368;2022-09-09T02:04:47;13.80;;;10.65;;
10945;SDS011;5525;42.648;23.368;2022-09-09T02:07:19;11.38;;;10.30;;
10945;SDS011;5525;42.648;23.368;2022-09-09T02:09:59;11.50;;;10.40;;
10945;SDS011;5525;42.648;23.368;2022-09-09T02:12:32;12.40;;;10.80;;
10945;SDS011;5525;42.648;23.368;2022-09-09T02:15:02;13.57;;;10.93;;
10945;SDS011;5525;42.648;23.368;2022-09-09T02:17:35;15.30;;;10.82;;
10945;SDS011;5525;42.648;23.368;2022-09-09T02:20:05;12.65;;;10.60;;
10945;SDS011;5525;42.648;23.368;2022-09-09T02:22:34;12.93;;;10.27;;
10945;SDS011;5525;42.648;23.368;2022-09-09T02:25:06;12.23;;;10.48;;
10945;SDS011;5525;42.648;23.368;2022-09-09T02:27:34;11.32;;;10.23;;
10945;SDS011;5525;42.648;23.368;2022-09-09T02:30:03;13.32;;;11.00;;
10945;SDS011;5525;42.648;23.368;2022-09-09T02:32:31;12.43;;;9.52;;
10945;SDS011;5525;42.648;23.368;2022-09-09T02:35:02;13.18;;;9.40;;
10945;SDS011;5525;42.648;23.368;2022-09-09T02:37:34;11.60;;;9.32;;
10945;SDS011;5525;42.648;23.368;2022-09-09T02:40:05;12.43;;;10.35;;
10945;SDS011;5525;42.648;23.368;2022-09-09T02:42:38;11.38;;;10.27;;
10945;SDS011;5525;42.648;23.368;2022-09-09T02:45:07;12.70;;;10.23;;
10945;SDS011;5525;42.648;23.368;2022-09-09T02:47:37;13.35;;;10.57;;
10945;SDS011;5525;42.648;23.368;2022-09-09T02:50:11;13.90;;;10.63;;
10945;SDS011;5525;42.648;23.368;2022-09-09T02:52:50;12.73;;;10.75;;
10945;SDS011;5525;42.648;23.368;2022-09-09T02:55:29;13.63;;;11.98;;
10945;SDS011;5525;42.648;23.368;2022-09-09T02:58:06;13.73;;;12.32;;
10945;SDS011;5525;42.648;23.368;2022-09-09T03:00:39;14.13;;;11.43;;
10945;SDS011;5525;42.648;23.368;2022-09-09T03:03:06;16.55;;;12.20;;
10945;SDS011;5525;42.648;23.368;2022-09-09T03:05:34;15.70;;;12.88;;
10945;SDS011;5525;42.648;23.368;2022-09-09T03:08:02;13.13;;;11.85;;
10945;SDS011;5525;42.648;23.368;2022-09-09T03:10:30;16.13;;;12.88;;
10945;SDS011;5525;42.648;23.368;2022-09-09T03:12:57;15.10;;;12.27;;
10945;SDS011;5525;42.648;23.368;2022-09-09T03:15:24;15.23;;;13.32;;
10945;SDS011;5525;42.648;23.368;2022-09-09T03:17:55;15.43;;;13.82;;
10945;SDS011;5525;42.648;23.368;2022-09-09T03:20:23;16.55;;;13.68;;
10945;SDS011;5525;42.648;23.368;2022-09-09T03:22:51;16.13;;;13.40;;
10945;SDS011;5525;42.648;23.368;2022-09-09T03:25:18;15.68;;;14.00;;
10945;SDS011;5525;42.648;23.368;2022-09-09T03:27:44;17.58;;;14.98;;
10945;SDS011;5525;42.648;23.368;2022-09-09T03:30:11;15.32;;;13.82;;
10945;SDS011;5525;42.648;23.368;2022-09-09T03:32:39;18.67;;;14.30;;
10945;SDS011;5525;42.648;23.368;2022-09-09T03:35:08;15.23;;;13.48;;
10945;SDS011;5525;42.648;23.368;2022-09-09T03:37:35;15.65;;;14.05;;
10945;SDS011;5525;42.648;23.368;2022-09-09T03:40:04;15.55;;;13.95;;
10945;SDS011;5525;42.648;23.368;2022-09-09T03:42:31;17.98;;;14.20;;
10945;SDS011;5525;42.648;23.368;2022-09-09T03:44:58;16.50;;;14.07;;
10945;SDS011;5525;42.648;23.368;2022-09-09T03:47:25;16.85;;;14.23;;
10945;SDS011;5525;42.648;23.368;2022-09-09T03:49:52;17.00;;;15.07;;
10945;SDS011;5525;42.648;23.368;2022-09-09T03:52:21;16.25;;;14.65;;
10945;SDS011;5525;42.648;23.368;2022-09-09T03:54:50;14.80;;;13.07;;
10945;SDS011;5525;42.648;23.368;2022-09-09T03:57:18;15.80;;;13.93;;
10945;SDS011;5525;42.648;23.368;2022-09-09T03:59:45;15.77;;;14.18;;
10945;SDS011;5525;42.648;23.368;2022-09-09T04:02:12;16.75;;;12.10;;
10945;SDS011;5525;42.648;23.368;2022-09-09T04:04:39;17.33;;;13.75;;
10945;SDS011;5525;42.648;23.368;2022-09-09T04:07:06;15.77;;;14.05;;
10945;SDS011;5525;42.648;23.368;2022-09-09T04:09:34;18.27;;;16.35;;
10945;SDS011;5525;42.648;23.368;2022-09-09T04:12:01;25.15;;;20.20;;
10945;SDS011;5525;42.648;23.368;2022-09-09T04:14:29;27.63;;;22.50;;
10945;SDS011;5525;42.648;23.368;2022-09-09T04:16:57;21.23;;;18.83;;
10945;SDS011;5525;42.648;23.368;2022-09-09T04:19:25;22.10;;;17.50;;
10945;SDS011;5525;42.648;23.368;2022-09-09T04:21:52;17.15;;;15.30;;
10945;SDS011;5525;42.648;23.368;2022-09-09T04:24:20;21.92;;;19.63;;
10945;SDS011;5525;42.648;23.368;2022-09-09T04:26:50;20.15;;;16.23;;
10945;SDS011;5525;42.648;23.368;2022-09-09T04:29:17;19.02;;;17.02;;
10945;SDS011;5525;42.648;23.368;2022-09-09T04:31:44;21.05;;;17.80;;
10945;SDS011;5525;42.648;23.368;2022-09-09T04:34:11;24.63;;;18.90;;
10945;SDS011;5525;42.648;23.368;2022-09-09T04:36:39;18.33;;;16.08;;
10945;SDS011;5525;42.648;23.368;2022-09-09T04:39:07;16.20;;;14.45;;
10945;SDS011;5525;42.648;23.368;2022-09-09T04:41:34;19.65;;;15.52;;
10945;SDS011;5525;42.648;23.368;2022-09-09T04:44:04;18.85;;;16.42;;
10945;SDS011;5525;42.648;23.368;2022-09-09T04:46:31;21.83;;;15.30;;
10945;SDS011;5525;42.648;23.368;2022-09-09T04:48:59;16.15;;;13.65;;
10945;SDS011;5525;42.648;23.368;2022-09-09T04:51:27;19.17;;;14.93;;
10945;SDS011;5525;42.648;23.368;2022-09-09T04:53:56;17.77;;;15.77;;
10945;SDS011;5525;42.648;23.368;2022-09-09T04:56:24;21.75;;;15.77;;
10945;SDS011;5525;42.648;23.368;2022-09-09T04:58:53;20.45;;;16.52;;
10945;SDS011;5525;42.648;23.368;2022-09-09T05:01:22;18.10;;;15.80;;
10945;SDS011;5525;42.648;23.368;2022-09-09T05:03:51;21.05;;;15.63;;
10945;SDS011;5525;42.648;23.368;2022-09-09T05:06:34;21.13;;;15.95;;
10945;SDS011;5525;42.648;23.368;2022-09-09T05:09:02;21.45;;;16.65;;
10945;SDS011;5525;42.648;23.368;2022-09-09T05:11:31;19.60;;;15.82;;
10945;SDS011;5525;42.648;23.368;2022-09-09T05:14:01;14.15;;;10.38;;
10945;SDS011;5525;42.648;23.368;2022-09-09T05:16:29;11.38;;;9.48;;
10945;SDS011;5525;42.648;23.368;2022-09-09T05:18:57;10.77;;;9.52;;
10945;SDS011;5525;42.648;23.368;2022-09-09T05:21:24;13.07;;;9.50;;
10945;SDS011;5525;42.648;23.368;2022-09-09T05:23:51;9.93;;;8.98;;
10945;SDS011;5525;42.648;23.368;2022-09-09T05:26:19;9.77;;;8.88;;
10945;SDS011;5525;42.648;23.368;2022-09-09T05:28:48;10.35;;;9.27;;
10945;SDS011;5525;42.648;23.368;2022-09-09T05:31:16;11.27;;;8.60;;
10945;SDS011;5525;42.648;23.368;2022-09-09T05:33:46;9.75;;;8.75;;
10945;SDS011;5525;42.648;23.368;2022-09-09T05:36:15;9.77;;;8.85;;
10945;SDS011;5525;42.648;23.368;2022-09-09T05:38:44;9.73;;;8.73;;
10945;SDS011;5525;42.648;23.368;2022-09-09T05:41:12;10.23;;;8.40;;
10945;SDS011;5525;42.648;23.368;2022-09-09T05:43:41;9.27;;;8.35;;
10945;SDS011;5525;42.648;23.368;2022-09-09T05:46:10;9.60;;;8.52;;
10945;SDS011;5525;42.648;23.368;2022-09-09T05:48:38;9.38;;;7.55;;
10945;SDS011;5525;42.648;23.368;2022-09-09T05:51:08;9.13;;;8.02;;
10945;SDS011;5525;42.648;23.368;2022-09-09T05:53:38;13.48;;;8.75;;
10945;SDS011;5525;42.648;23.368;2022-09-09T05:56:08;10.82;;;9.20;;
10945;SDS011;5525;42.648;23.368;2022-09-09T05:58:37;9.82;;;7.90;;
10945;SDS011;5525;42.648;23.368;2022-09-09T06:01:09;11.27;;;9.10;;
10945;SDS011;5525;42.648;23.368;2022-09-09T06:03:39;11.27;;;8.43;;
10945;SDS011;5525;42.648;23.368;2022-09-09T06:06:11;9.80;;;8.65;;
10945;SDS011;5525;42.648;23.368;2022-09-09T06:08:39;11.65;;;8.95;;
10945;SDS011;5525;42.648;23.368;2022-09-09T06:11:10;9.60;;;8.45;;
10945;SDS011;5525;42.648;23.368;2022-09-09T06:13:38;9.52;;;8.60;;
10945;SDS011;5525;42.648;23.368;2022-09-09T06:16:06;10.48;;;8.50;;
10945;SDS011;5525;42.648;23.368;2022-09-09T06:18:38;10.88;;;8.07;;
10945;SDS011;5525;42.648;23.368;2022-09-09T06:21:06;9.10;;;8.20;;
10945;SDS011;5525;42.648;23.368;2022-09-09T06:23:36;12.32;;;9.30;;
10945;SDS011;5525;42.648;23.368;2022-09-09T06:26:07;13.10;;;9.30;;
10945;SDS011;5525;42.648;23.368;2022-09-09T06:28:37;9.63;;;8.40;;
10945;SDS011;5525;42.648;23.368;2022-09-09T06:31:06;8.60;;;7.80;;
10945;SDS011;5525;42.648;23.368;2022-09-09T06:33:35;11.88;;;8.00;;
10945;SDS011;5525;42.648;23.368;2022-09-09T06:36:06;9.07;;;7.82;;
10945;SDS011;5525;42.648;23.368;2022-09-09T06:38:34;11.02;;;6.72;;
10945;SDS011;5525;42.648;23.368;2022-09-09T06:41:03;8.40;;;6.28;;
10945;SDS011;5525;42.648;23.368;2022-09-09T06:43:30;7.70;;;6.55;;
10945;SDS011;5525;42.648;23.368;2022-09-09T06:46:00;10.40;;;7.40;;
10945;SDS011;5525;42.648;23.368;2022-09-09T06:48:28;9.90;;;7.13;;
10945;SDS011;5525;42.648;23.368;2022-09-09T06:51:02;11.45;;;6.80;;
10945;SDS011;5525;42.648;23.368;2022-09-09T06:53:31;10.20;;;6.90;;
10945;SDS011;5525;42.648;23.368;2022-09-09T06:55:59;10.52;;;9.43;;
10945;SDS011;5525;42.648;23.368;2022-09-09T06:58:28;8.43;;;7.32;;
10945;SDS011;5525;42.648;23.368;2022-09-09T07:01:01;8.07;;;6.88;;
10945;SDS011;5525;42.648;23.368;2022-09-09T07:03:29;7.53;;;6.80;;
10945;SDS011;5525;42.648;23.368;2022-09-09T07:05:56;8.65;;;6.88;;
10945;SDS011;5525;42.648;23.368;2022-09-09T07:08:24;8.38;;;6.75;;
10945;SDS011;5525;42.648;23.368;2022-09-09T07:10:51;8.70;;;7.22;;
10945;SDS011;5525;42.648;23.368;2022-09-09T07:13:19;9.45;;;6.43;;
10945;SDS011;5525;42.648;23.368;2022-09-09T07:15:51;11.32;;;6.72;;
10945;SDS011;5525;42.648;23.368;2022-09-09T07:18:19;8.05;;;6.40;;
10945;SDS011;5525;42.648;23.368;2022-09-09T07:20:52;8.02;;;6.13;;
10945;SDS011;5525;42.648;23.368;2022-09-09T07:23:22;6.55;;;5.85;;
10945;SDS011;5525;42.648;23.368;2022-09-09T07:25:49;6.00;;;5.43;;
10945;SDS011;5525;42.648;23.368;2022-09-09T07:28:16;8.50;;;6.07;;
10945;SDS011;5525;42.648;23.368;2022-09-09T07:30:45;7.55;;;5.70;;
10945;SDS011;5525;42.648;23.368;2022-09-09T07:33:22;8.68;;;6.32;;
10945;SDS011;5525;42.648;23.368;2022-09-09T07:35:49;6.68;;;6.00;;
10945;SDS011;5525;42.648;23.368;2022-09-09T07:38:17;8.32;;;6.38;;
10945;SDS011;5525;42.648;23.368;2022-09-09T07:40:48;7.15;;;5.93;;
10945;SDS011;5525;42.648;23.368;2022-09-09T07:43:15;8.73;;;6.25;;
10945;SDS011;5525;42.648;23.368;2022-09-09T07:45:44;7.72;;;6.00;;
10945;SDS011;5525;42.648;23.368;2022-09-09T07:48:13;6.40;;;5.80;;
10945;SDS011;5525;42.648;23.368;2022-09-09T07:50:43;5.85;;;5.28;;
10945;SDS011;5525;42.648;23.368;2022-09-09T07:53:14;8.68;;;6.50;;
10945;SDS011;5525;42.648;23.368;2022-09-09T07:55:42;8.15;;;6.53;;
10945;SDS011;5525;42.648;23.368;2022-09-09T07:58:10;8.45;;;6.32;;
10945;SDS011;5525;42.648;23.368;2022-09-09T08:00:37;7.60;;;6.45;;
10945;SDS011;5525;42.648;23.368;2022-09-09T08:03:08;7.93;;;5.50;;
10945;SDS011;5525;42.648;23.368;2022-09-09T08:05:37;10.48;;;5.50;;
10945;SDS011;5525;42.648;23.368;2022-09-09T08:08:07;7.00;;;5.82;;
10945;SDS011;5525;42.648;23.368;2022-09-09T08:10:35;8.55;;;5.88;;
10945;SDS011;5525;42.648;23.368;2022-09-09T08:13:02;7.78;;;5.28;;
10945;SDS011;5525;42.648;23.368;2022-09-09T08:15:30;8.40;;;5.38;;
10945;SDS011;5525;42.648;23.368;2022-09-09T08:17:59;9.77;;;5.43;;
10945;SDS011;5525;42.648;23.368;2022-09-09T08:20:27;10.77;;;5.93;;
10945;SDS011;5525;42.648;23.368;2022-09-09T08:22:56;9.57;;;5.88;;
10945;SDS011;5525;42.648;23.368;2022-09-09T08:25:24;12.18;;;6.53;;
10945;SDS011;5525;42.648;23.368;2022-09-09T08:27:52;8.98;;;5.85;;
10945;SDS011;5525;42.648;23.368;2022-09-09T08:30:19;7.50;;;5.75;;
10945;SDS011;5525;42.648;23.368;2022-09-09T08:32:46;7.45;;;6.15;;
10945;SDS011;5525;42.648;23.368;2022-09-09T08:35:16;10.18;;;5.70;;
10945;SDS011;5525;42.648;23.368;2022-09-09T08:37:43;8.40;;;7.60;;
10945;SDS011;5525;42.648;23.368;2022-09-09T08:40:12;6.75;;;5.80;;
10945;SDS011;5525;42.648;23.368;2022-09-09T08:42:49;9.50;;;6.07;;
10945;SDS011;5525;42.648;23.368;2022-09-09T08:45:24;7.93;;;6.43;;
10945;SDS011;5525;42.648;23.368;2022-09-09T08:48:03;6.90;;;5.88;;
10945;SDS011;5525;42.648;23.368;2022-09-09T08:50:41;7.13;;;5.55;;
10945;SDS011;5525;42.648;23.368;2022-09-09T08:53:14;7.25;;;5.75;;
10945;SDS011;5525;42.648;23.368;2022-09-09T08:55:47;7.68;;;5.82;;
10945;SDS011;5525;42.648;23.368;2022-09-09T08:58:16;8.50;;;5.63;;
10945;SDS011;5525;42.648;23.368;2022-09-09T09:00:53;8.18;;;5.50;;
10945;SDS011;5525;42.648;23.368;2022-09-09T09:03:35;10.57;;;5.55;;
10945;SDS011;5525;42.648;23.368;2022-09-09T09:06:17;7.28;;;6.20;;
10945;SDS011;5525;42.648;23.368;2022-09-09T09:08:56;6.90;;;6.25;;
10945;SDS011;5525;42.648;23.368;2022-09-09T09:11:35;10.23;;;5.72;;
10945;SDS011;5525;42.648;23.368;2022-09-09T09:14:07;9.82;;;6.22;;
10945;SDS011;5525;42.648;23.368;2022-09-09T09:16:41;8.25;;;6.55;;
10945;SDS011;5525;42.648;23.368;2022-09-09T09:19:15;8.50;;;5.82;;
10945;SDS011;5525;42.648;23.368;2022-09-09T09:21:44;8.48;;;6.43;;
10945;SDS011;5525;42.648;23.368;2022-09-09T09:24:16;13.38;;;6.40;;
10945;SDS011;5525;42.648;23.368;2022-09-09T09:26:47;7.97;;;6.10;;
10945;SDS011;5525;42.648;23.368;2022-09-09T09:29:15;7.07;;;5.50;;
10945;SDS011;5525;42.648;23.368;2022-09-09T09:31:45;9.70;;;6.30;;
10945;SDS011;5525;42.648;23.368;2022-09-09T09:34:17;11.05;;;5.75;;
10945;SDS011;5525;42.648;23.368;2022-09-09T09:36:45;9.73;;;6.30;;
10945;SDS011;5525;42.648;23.368;2022-09-09T09:39:22;8.23;;;5.97;;
10945;SDS011;5525;42.648;23.368;2022-09-09T09:41:52;8.90;;;5.93;;
10945;SDS011;5525;42.648;23.368;2022-09-09T09:44:22;8.93;;;6.50;;
10945;SDS011;5525;42.648;23.368;2022-09-09T09:46:52;7.97;;;6.28;;
10945;SDS011;5525;42.648;23.368;2022-09-09T09:49:32;9.00;;;5.93;;
10945;SDS011;5525;42.648;23.368;2022-09-09T09:52:00;8.55;;;6.25;;
10945;SDS011;5525;42.648;23.368;2022-09-09T09:54:28;8.70;;;6.57;;
10945;SDS011;5525;42.648;23.368;2022-09-09T09:57:08;8.57;;;5.85;;
10945;SDS011;5525;42.648;23.368;2022-09-09T09:59:37;7.85;;;5.90;;
10945;SDS011;5525;42.648;23.368;2022-09-09T10:02:14;9.30;;;6.28;;
10945;SDS011;5525;42.648;23.368;2022-09-09T10:04:43;9.07;;;6.03;;
10945;SDS011;5525;42.648;23.368;2022-09-09T10:07:11;9.20;;;6.40;;
10945;SDS011;5525;42.648;23.368;2022-09-09T10:09:48;13.55;;;6.25;;
10945;SDS011;5525;42.648;23.368;2022-09-09T10:12:23;7.78;;;6.68;;
10945;SDS011;5525;42.648;23.368;2022-09-09T10:15:01;10.88;;;6.95;;
10945;SDS011;5525;42.648;23.368;2022-09-09T10:17:40;10.38;;;6.53;;
10945;SDS011;5525;42.648;23.368;2022-09-09T10:20:22;9.23;;;6.88;;
10945;SDS011;5525;42.648;23.368;2022-09-09T10:23:02;11.50;;;6.93;;
10945;SDS011;5525;42.648;23.368;2022-09-09T10:25:44;8.80;;;6.45;;
10945;SDS011;5525;42.648;23.368;2022-09-09T10:28:41;12.85;;;7.05;;
10945;SDS011;5525;42.648;23.368;2022-09-09T10:31:32;12.07;;;6.40;;
10945;SDS011;5525;42.648;23.368;2022-09-09T10:34:11;11.82;;;6.68;;
10945;SDS011;5525;42.648;23.368;2022-09-09T10:36:49;11.70;;;7.65;;
10945;SDS011;5525;42.648;23.368;2022-09-09T10:39:19;11.48;;;6.40;;
10945;SDS011;5525;42.648;23.368;2022-09-09T10:42:00;9.43;;;6.55;;
10945;SDS011;5525;42.648;23.368;2022-09-09T10:44:46;7.35;;;6.53;;
10945;SDS011;5525;42.648;23.368;2022-09-09T10:47:34;12.63;;;7.05;;
10945;SDS011;5525;42.648;23.368;2022-09-09T10:50:37;11.25;;;6.82;;
10945;SDS011;5525;42.648;23.368;2022-09-09T10:53:14;9.70;;;6.82;;
10945;SDS011;5525;42.648;23.368;2022-09-09T10:55:51;13.60;;;6.90;;
10945;SDS011;5525;42.648;23.368;2022-09-09T10:58:25;9.48;;;6.60;;
10945;SDS011;5525;42.648;23.368;2022-09-09T11:01:06;9.32;;;6.70;;
10945;SDS011;5525;42.648;23.368;2022-09-09T11:03:42;7.22;;;6.53;;
10945;SDS011;5525;42.648;23.368;2022-09-09T11:06:16;7.15;;;6.50;;
10945;SDS011;5525;42.648;23.368;2022-09-09T11:08:47;9.20;;;6.18;;
10945;SDS011;5525;42.648;23.368;2022-09-09T11:11:19;10.52;;;8.35;;
10945;SDS011;5525;42.648;23.368;2022-09-09T11:13:55;9.05;;;6.57;;
10945;SDS011;5525;42.648;23.368;2022-09-09T11:16:29;7.15;;;6.32;;
10945;SDS011;5525;42.648;23.368;2022-09-09T11:19:05;9.32;;;6.68;;
10945;SDS011;5525;42.648;23.368;2022-09-09T11:21:50;9.40;;;6.97;;
10945;SDS011;5525;42.648;23.368;2022-09-09T11:24:20;8.32;;;6.60;;
10945;SDS011;5525;42.648;23.368;2022-09-09T11:26:54;7.32;;;6.63;;
10945;SDS011;5525;42.648;23.368;2022-09-09T11:32:51;8.75;;;6.80;;
10945;SDS011;5525;42.648;23.368;2022-09-09T11:35:40;11.48;;;7.25;;
10945;SDS011;5525;42.648;23.368;2022-09-09T11:38:21;8.23;;;6.93;;
10945;SDS011;5525;42.648;23.368;2022-09-09T11:40:57;13.50;;;7.50;;
10945;SDS011;5525;42.648;23.368;2022-09-09T11:43:29;10.15;;;7.07;;
10945;SDS011;5525;42.648;23.368;2022-09-09T11:45:58;10.15;;;7.32;;
10945;SDS011;5525;42.648;23.368;2022-09-09T11:48:31;11.68;;;7.47;;
10945;SDS011;5525;42.648;23.368;2022-09-09T11:51:04;9.98;;;7.50;;
10945;SDS011;5525;42.648;23.368;2022-09-09T11:53:32;8.90;;;7.70;;
10945;SDS011;5525;42.648;23.368;2022-09-09T11:56:08;11.50;;;7.55;;
10945;SDS011;5525;42.648;23.368;2022-09-09T11:58:39;9.85;;;7.95;;
10945;SDS011;5525;42.648;23.368;2022-09-09T12:01:26;12.52;;;8.02;;
10945;SDS011;5525;42.648;23.368;2022-09-09T12:07:21;9.63;;;7.97;;
10945;SDS011;5525;42.648;23.368;2022-09-09T12:10:03;15.20;;;8.23;;
10945;SDS011;5525;42.648;23.368;2022-09-09T12:12:34;9.13;;;7.88;;
10945;SDS011;5525;42.648;23.368;2022-09-09T12:17:54;10.40;;;8.18;;
10945;SDS011;5525;42.648;23.368;2022-09-09T12:23:00;14.25;;;8.57;;
10945;SDS011;5525;42.648;23.368;2022-09-09T12:28:36;16.15;;;8.52;;
10945;SDS011;5525;42.648;23.368;2022-09-09T12:31:14;11.63;;;8.38;;
10945;SDS011;5525;42.648;23.368;2022-09-09T12:33:47;12.63;;;8.15;;
10945;SDS011;5525;42.648;23.368;2022-09-09T12:36:15;12.57;;;8.10;;
10945;SDS011;5525;42.648;23.368;2022-09-09T12:38:47;10.15;;;8.68;;
10945;SDS011;5525;42.648;23.368;2022-09-09T12:41:19;10.93;;;8.38;;
10945;SDS011;5525;42.648;23.368;2022-09-09T12:43:48;19.42;;;8.52;;
10945;SDS011;5525;42.648;23.368;2022-09-09T12:46:18;11.18;;;8.27;;
10945;SDS011;5525;42.648;23.368;2022-09-09T12:48:51;11.35;;;8.48;;
10945;SDS011;5525;42.648;23.368;2022-09-09T12:51:21;11.35;;;7.78;;
10945;SDS011;5525;42.648;23.368;2022-09-09T12:53:54;10.13;;;7.65;;
10945;SDS011;5525;42.648;23.368;2022-09-09T12:56:23;13.48;;;8.88;;
10945;SDS011;5525;42.648;23.368;2022-09-09T12:58:53;9.75;;;8.02;;
10945;SDS011;5525;42.648;23.368;2022-09-09T13:01:24;9.43;;;8.43;;
10945;SDS011;5525;42.648;23.368;2022-09-09T13:03:54;15.27;;;8.77;;
10945;SDS011;5525;42.648;23.368;2022-09-09T13:06:22;14.10;;;8.60;;
10945;SDS011;5525;42.648;23.368;2022-09-09T13:08:51;11.70;;;9.65;;
10945;SDS011;5525;42.648;23.368;2022-09-09T13:11:21;12.90;;;8.80;;
10945;SDS011;5525;42.648;23.368;2022-09-09T13:13:51;15.23;;;8.57;;
10945;SDS011;5525;42.648;23.368;2022-09-09T13:16:21;13.45;;;8.68;;
10945;SDS011;5525;42.648;23.368;2022-09-09T13:18:51;14.02;;;9.02;;
10945;SDS011;5525;42.648;23.368;2022-09-09T13:21:30;11.90;;;8.45;;
10945;SDS011;5525;42.648;23.368;2022-09-09T13:23:58;9.85;;;8.70;;
10945;SDS011;5525;42.648;23.368;2022-09-09T13:26:29;12.38;;;8.23;;
10945;SDS011;5525;42.648;23.368;2022-09-09T13:29:07;10.65;;;8.35;;
10945;SDS011;5525;42.648;23.368;2022-09-09T13:31:43;12.55;;;8.00;;
10945;SDS011;5525;42.648;23.368;2022-09-09T13:34:11;14.02;;;7.97;;
10945;SDS011;5525;42.648;23.368;2022-09-09T13:36:41;11.93;;;8.50;;
10945;SDS011;5525;42.648;23.368;2022-09-09T13:39:14;12.02;;;8.13;;
10945;SDS011;5525;42.648;23.368;2022-09-09T13:41:50;14.15;;;7.95;;
10945;SDS011;5525;42.648;23.368;2022-09-09T13:44:19;8.90;;;8.00;;
10945;SDS011;5525;42.648;23.368;2022-09-09T13:46:59;17.83;;;8.13;;
10945;SDS011;5525;42.648;23.368;2022-09-09T13:49:29;14.63;;;8.27;;
10945;SDS011;5525;42.648;23.368;2022-09-09T13:52:08;14.13;;;9.00;;
10945;SDS011;5525;42.648;23.368;2022-09-09T13:54:46;10.23;;;8.07;;
10945;SDS011;5525;42.648;23.368;2022-09-09T13:57:17;14.02;;;8.77;;
10945;SDS011;5525;42.648;23.368;2022-09-09T13:59:45;15.35;;;8.95;;
10945;SDS011;5525;42.648;23.368;2022-09-09T14:02:12;12.07;;;8.40;;
10945;SDS011;5525;42.648;23.368;2022-09-09T14:04:41;12.48;;;8.88;;
10945;SDS011;5525;42.648;23.368;2022-09-09T14:07:15;13.82;;;8.30;;
10945;SDS011;5525;42.648;23.368;2022-09-09T14:09:43;11.55;;;8.80;;
10945;SDS011;5525;42.648;23.368;2022-09-09T14:12:17;12.48;;;8.48;;
10945;SDS011;5525;42.648;23.368;2022-09-09T14:14:45;11.27;;;8.32;;
10945;SDS011;5525;42.648;23.368;2022-09-09T14:17:12;12.73;;;8.32;;
10945;SDS011;5525;42.648;23.368;2022-09-09T14:19:41;12.63;;;8.45;;
10945;SDS011;5525;42.648;23.368;2022-09-09T14:22:11;12.00;;;7.93;;
10945;SDS011;5525;42.648;23.368;2022-09-09T14:24:39;15.57;;;8.73;;
10945;SDS011;5525;42.648;23.368;2022-09-09T14:27:07;10.82;;;7.90;;
10945;SDS011;5525;42.648;23.368;2022-09-09T14:29:36;13.18;;;7.75;;
10945;SDS011;5525;42.648;23.368;2022-09-09T14:32:03;11.02;;;7.65;;
10945;SDS011;5525;42.648;23.368;2022-09-09T14:34:30;10.57;;;7.70;;
10945;SDS011;5525;42.648;23.368;2022-09-09T14:36:58;10.38;;;7.88;;
10945;SDS011;5525;42.648;23.368;2022-09-09T14:39:26;14.27;;;7.82;;
10945;SDS011;5525;42.648;23.368;2022-09-09T14:41:54;8.80;;;7.30;;
10945;SDS011;5525;42.648;23.368;2022-09-09T14:44:21;10.73;;;8.07;;
10945;SDS011;5525;42.648;23.368;2022-09-09T14:46:50;13.20;;;8.05;;
10945;SDS011;5525;42.648;23.368;2022-09-09T14:49:18;12.95;;;8.45;;
10945;SDS011;5525;42.648;23.368;2022-09-09T14:51:45;12.10;;;8.43;;
10945;SDS011;5525;42.648;23.368;2022-09-09T14:54:13;13.30;;;7.97;;
10945;SDS011;5525;42.648;23.368;2022-09-09T14:56:40;11.27;;;8.00;;
10945;SDS011;5525;42.648;23.368;2022-09-09T14:59:07;8.32;;;7.35;;
10945;SDS011;5525;42.648;23.368;2022-09-09T15:01:35;14.07;;;8.32;;
10945;SDS011;5525;42.648;23.368;2022-09-09T15:04:04;8.48;;;7.38;;
10945;SDS011;5525;42.648;23.368;2022-09-09T15:06:33;9.18;;;7.85;;
10945;SDS011;5525;42.648;23.368;2022-09-09T15:09:03;10.38;;;7.45;;
10945;SDS011;5525;42.648;23.368;2022-09-09T15:11:33;9.65;;;8.32;;
10945;SDS011;5525;42.648;23.368;2022-09-09T15:14:03;11.35;;;8.45;;
10945;SDS011;5525;42.648;23.368;2022-09-09T15:16:40;10.65;;;8.30;;